createdAt,value
2017-12-15T00:00:02.452Z,18.83
2017-12-15T00:02:28.677Z,20.80
2017-12-15T00:04:54.867Z,20.03
2017-12-15T00:07:21.109Z,19.93
2017-12-15T00:09:47.330Z,22.03
2017-12-15T00:12:13.537Z,20.10
2017-12-15T00:14:40.563Z,21.30
2017-12-15T00:17:06.837Z,21.33
2017-12-15T00:19:33.033Z,18.43
2017-12-15T00:21:59.246Z,30.33
2017-12-15T00:24:25.481Z,34.60
2017-12-15T00:26:51.691Z,22.57
2017-12-15T00:29:17.891Z,21.70
2017-12-15T00:31:44.251Z,20.07
2017-12-15T00:34:10.438Z,18.60
2017-12-15T00:36:36.661Z,20.43
2017-12-15T00:39:02.931Z,21.50
2017-12-15T00:41:29.116Z,19.43
2017-12-15T00:43:55.350Z,19.40
2017-12-15T00:46:21.577Z,18.53
2017-12-15T00:48:47.809Z,18.37
2017-12-15T00:51:14.017Z,19.30
2017-12-15T00:53:40.254Z,20.03
2017-12-15T00:56:06.493Z,18.87
2017-12-15T00:58:32.723Z,16.77
2017-12-15T01:00:58.965Z,16.58
2017-12-15T01:03:25.175Z,16.90
2017-12-15T01:05:51.434Z,17.48
2017-12-15T01:08:17.710Z,17.27
2017-12-15T01:10:43.909Z,16.43
2017-12-15T01:13:10.100Z,15.90
2017-12-15T01:15:37.056Z,16.05
2017-12-15T01:18:03.997Z,15.40
2017-12-15T01:20:30.182Z,14.93
2017-12-15T01:22:56.415Z,16.60
2017-12-15T01:25:22.651Z,15.37
2017-12-15T01:27:48.843Z,14.90
2017-12-15T01:30:15.813Z,15.80
2017-12-15T01:32:42.271Z,14.63
2017-12-15T01:35:08.531Z,15.33
2017-12-15T01:37:34.740Z,15.57
2017-12-15T01:40:00.957Z,15.90
2017-12-15T01:42:27.184Z,15.80
2017-12-15T01:44:53.461Z,17.40
2017-12-15T01:47:19.666Z,15.23
2017-12-15T01:49:45.868Z,15.27
2017-12-15T01:52:12.100Z,15.70
2017-12-15T01:54:38.329Z,15.80
2017-12-15T01:57:05.298Z,15.27
2017-12-15T01:59:32.294Z,15.63
2017-12-15T02:01:58.509Z,16.20
2017-12-15T02:04:25.441Z,16.17
2017-12-15T02:06:52.401Z,15.80
2017-12-15T02:09:18.657Z,14.47
2017-12-15T02:11:44.870Z,15.80
2017-12-15T02:14:11.114Z,15.87
2017-12-15T02:16:37.346Z,16.10
2017-12-15T02:19:03.567Z,14.97
2017-12-15T02:21:29.800Z,14.50
2017-12-15T02:23:56.050Z,14.80
2017-12-15T02:26:22.276Z,16.03
2017-12-15T02:28:48.518Z,13.37
2017-12-15T02:31:14.737Z,15.10
2017-12-15T02:33:41.177Z,15.00
2017-12-15T02:36:08.469Z,13.17
2017-12-15T02:38:34.746Z,14.73
2017-12-15T02:41:01.718Z,14.10
2017-12-15T02:43:28.858Z,14.30
2017-12-15T02:45:55.056Z,15.90
2017-12-15T02:48:21.274Z,15.10
2017-12-15T02:50:47.518Z,15.73
2017-12-15T02:53:13.729Z,16.07
2017-12-15T02:55:39.935Z,15.53
2017-12-15T02:58:06.981Z,16.77
2017-12-15T03:00:33.181Z,16.10
2017-12-15T03:02:59.375Z,16.60
2017-12-15T03:05:26.322Z,14.90
2017-12-15T03:07:53.297Z,16.33
2017-12-15T03:10:19.481Z,15.43
2017-12-15T03:12:45.721Z,15.30
2017-12-15T03:15:12.708Z,16.20
2017-12-15T03:17:39.648Z,15.70
2017-12-15T03:20:05.875Z,16.93
2017-12-15T03:22:32.828Z,17.20
2017-12-15T03:24:59.765Z,16.60
2017-12-15T03:27:26.717Z,17.27
2017-12-15T03:29:52.917Z,15.50
2017-12-15T03:32:19.105Z,16.27
2017-12-15T03:34:45.897Z,17.17
2017-12-15T03:37:12.129Z,16.80
2017-12-15T03:39:38.352Z,15.80
2017-12-15T03:42:04.598Z,17.63
2017-12-15T03:44:30.821Z,16.40
2017-12-15T03:46:57.036Z,17.77
2017-12-15T03:49:24.089Z,17.13
2017-12-15T03:51:50.284Z,19.00
2017-12-15T03:54:16.491Z,17.97
2017-12-15T03:56:42.837Z,17.00
2017-12-15T03:59:09.056Z,15.80
2017-12-15T04:01:35.303Z,17.17
2017-12-15T04:04:02.257Z,16.17
2017-12-15T04:06:28.468Z,15.97
2017-12-15T04:08:54.688Z,14.63
2017-12-15T04:11:20.929Z,16.67
2017-12-15T04:13:47.139Z,15.17
2017-12-15T04:16:14.109Z,15.20
2017-12-15T04:18:40.336Z,16.57
2017-12-15T04:21:06.576Z,17.30
2017-12-15T04:23:32.786Z,16.00
2017-12-15T04:25:59.044Z,16.83
2017-12-15T04:28:25.264Z,17.07
2017-12-15T04:30:51.468Z,17.37
2017-12-15T04:33:17.686Z,16.70
2017-12-15T04:35:46.619Z,17.40
2017-12-15T04:38:12.851Z,18.30
2017-12-15T04:40:39.816Z,16.80
2017-12-15T04:43:06.033Z,16.30
2017-12-15T04:45:32.968Z,18.37
2017-12-15T04:47:59.199Z,18.67
2017-12-15T04:50:25.408Z,16.80
2017-12-15T04:52:51.716Z,17.57
2017-12-15T04:55:17.952Z,16.87
2017-12-15T04:57:44.160Z,18.37
2017-12-15T05:00:11.126Z,18.73
2017-12-15T05:02:37.360Z,17.53
2017-12-15T05:05:04.285Z,17.57
2017-12-15T05:07:31.328Z,19.57
2017-12-15T05:09:57.542Z,20.50
2017-12-15T05:12:23.768Z,19.67
2017-12-15T05:14:49.993Z,19.60
2017-12-15T05:17:16.239Z,18.90
2017-12-15T05:19:42.470Z,19.50
2017-12-15T05:22:08.714Z,19.80
2017-12-15T05:24:34.942Z,20.30
2017-12-15T05:27:01.170Z,19.67
2017-12-15T05:29:27.403Z,20.80
2017-12-15T05:31:53.628Z,19.20
2017-12-15T05:34:19.836Z,19.93
2017-12-15T05:36:46.395Z,18.27
2017-12-15T05:39:12.623Z,22.70
2017-12-15T05:41:38.852Z,21.80
2017-12-15T05:44:05.056Z,20.57
2017-12-15T05:46:32.018Z,19.87
2017-12-15T05:48:59.017Z,19.47
2017-12-15T05:51:25.216Z,22.47
2017-12-15T05:53:51.456Z,22.80
2017-12-15T05:56:17.671Z,20.90
2017-12-15T05:58:44.621Z,20.13
2017-12-15T06:01:11.729Z,19.70
2017-12-15T06:03:37.993Z,20.93
2017-12-15T06:06:04.977Z,20.23
2017-12-15T06:08:32.004Z,20.70
2017-12-15T06:10:58.221Z,20.90
2017-12-15T06:13:25.189Z,19.70
2017-12-15T06:15:51.408Z,19.13
2017-12-15T06:18:17.616Z,19.90
2017-12-15T06:20:43.855Z,21.87
2017-12-15T06:23:10.944Z,20.90
2017-12-15T06:25:37.157Z,21.93
2017-12-15T06:28:03.448Z,22.00
2017-12-15T06:30:29.665Z,22.80
2017-12-15T06:32:56.648Z,24.00
2017-12-15T06:35:22.863Z,24.53
2017-12-15T06:37:49.429Z,24.50
2017-12-15T06:40:15.669Z,24.37
2017-12-15T06:42:41.963Z,24.60
2017-12-15T06:45:08.240Z,23.10
2017-12-15T06:47:34.496Z,25.17
2017-12-15T06:50:00.793Z,22.30
2017-12-15T06:52:27.073Z,21.70
2017-12-15T06:54:53.337Z,23.13
2017-12-15T06:57:19.552Z,22.80
2017-12-15T06:59:45.763Z,22.00
2017-12-15T07:02:12.008Z,22.90
2017-12-15T07:04:38.235Z,20.63
2017-12-15T07:07:05.249Z,22.13
2017-12-15T07:09:32.234Z,23.30
2017-12-15T07:11:58.470Z,22.80
2017-12-15T07:14:24.716Z,22.73
2017-12-15T07:16:50.942Z,20.77
2017-12-15T07:19:17.153Z,22.70
2017-12-15T07:21:43.380Z,23.53
2017-12-15T07:24:09.586Z,21.80
2017-12-15T07:26:36.542Z,21.67
2017-12-15T07:29:03.521Z,20.30
2017-12-15T07:31:29.729Z,21.57
2017-12-15T07:33:55.943Z,23.20
2017-12-15T07:36:22.178Z,22.10
2017-12-15T07:38:48.815Z,22.50
2017-12-15T07:41:15.791Z,23.37
2017-12-15T07:43:42.788Z,22.90
2017-12-15T07:46:09.020Z,22.70
2017-12-15T07:48:36.026Z,25.63
2017-12-15T07:51:03.037Z,24.20
2017-12-15T07:53:29.262Z,22.70
2017-12-15T07:55:55.472Z,22.87
2017-12-15T07:58:21.717Z,23.90
2017-12-15T08:00:47.926Z,24.80
2017-12-15T08:03:14.220Z,23.83
2017-12-15T08:05:40.469Z,22.20
2017-12-15T08:08:06.713Z,22.87
2017-12-15T08:10:33.668Z,22.23
2017-12-15T08:13:00.661Z,23.57
2017-12-15T08:15:26.878Z,24.07
2017-12-15T08:17:53.080Z,22.20
2017-12-15T08:20:19.341Z,25.07
2017-12-15T08:22:46.288Z,25.97
2017-12-15T08:25:13.241Z,21.23
2017-12-15T08:27:39.485Z,24.03
2017-12-15T08:30:05.704Z,23.17
2017-12-15T08:32:32.640Z,23.63
2017-12-15T08:34:58.869Z,24.87
2017-12-15T08:37:25.104Z,25.83
2017-12-15T08:39:51.706Z,23.30
2017-12-15T08:42:18.690Z,25.20
2017-12-15T08:44:44.901Z,26.60
2017-12-15T08:47:11.137Z,28.23
2017-12-15T08:49:38.094Z,27.20
2017-12-15T08:52:04.318Z,24.83
2017-12-15T08:54:30.546Z,26.67
2017-12-15T08:56:56.789Z,28.67
2017-12-15T08:59:22.984Z,29.63
2017-12-15T09:01:49.248Z,25.60
2017-12-15T09:04:21.674Z,26.10
2017-12-15T09:06:47.938Z,25.63
2017-12-15T09:09:14.141Z,25.80
2017-12-15T09:11:40.393Z,23.60
2017-12-15T09:14:07.360Z,25.17
2017-12-15T09:16:33.576Z,25.13
2017-12-15T09:18:59.831Z,24.20
2017-12-15T09:21:26.065Z,25.73
2017-12-15T09:23:52.265Z,24.73
2017-12-15T09:26:19.245Z,23.90
2017-12-15T09:28:45.447Z,26.33
2017-12-15T09:31:12.425Z,25.07
2017-12-15T09:33:38.653Z,26.80
2017-12-15T09:36:05.620Z,25.20
2017-12-15T09:38:31.836Z,23.97
2017-12-15T09:40:58.396Z,27.17
2017-12-15T09:43:24.644Z,26.07
2017-12-15T09:45:50.870Z,24.57
2017-12-15T09:48:17.117Z,26.40
2017-12-15T09:50:43.330Z,26.77
2017-12-15T09:53:09.553Z,26.90
2017-12-15T09:55:36.521Z,25.90
2017-12-15T09:58:02.736Z,28.00
2017-12-15T10:00:29.009Z,27.30
2017-12-15T10:02:55.229Z,28.17
2017-12-15T10:05:21.441Z,26.93
2017-12-15T10:07:48.400Z,26.87
2017-12-15T10:10:14.660Z,27.07
2017-12-15T10:12:40.889Z,27.93
2017-12-15T10:15:07.101Z,27.00
2017-12-15T10:17:33.372Z,30.03
2017-12-15T10:19:59.620Z,28.57
2017-12-15T10:22:25.878Z,31.23
2017-12-15T10:24:52.098Z,27.77
2017-12-15T10:27:18.294Z,31.93
2017-12-15T10:29:44.492Z,29.13
2017-12-15T10:32:11.491Z,29.03
2017-12-15T10:34:37.696Z,28.53
2017-12-15T10:37:03.949Z,30.10
2017-12-15T10:39:30.208Z,31.00
2017-12-15T10:41:56.680Z,27.70
2017-12-15T10:44:22.888Z,28.87
2017-12-15T10:46:49.136Z,29.30
2017-12-15T10:49:16.128Z,26.50
2017-12-15T10:51:43.056Z,28.10
2017-12-15T10:54:09.291Z,26.97
2017-12-15T10:56:35.536Z,26.43
2017-12-15T10:59:02.482Z,25.63
2017-12-15T11:01:28.744Z,26.20
2017-12-15T11:03:55.724Z,25.53
2017-12-15T11:06:21.965Z,25.40
2017-12-15T11:08:48.192Z,24.73
2017-12-15T11:11:14.413Z,24.30
2017-12-15T11:13:40.640Z,24.23
2017-12-15T11:16:07.605Z,24.73
2017-12-15T11:18:33.809Z,24.87
2017-12-15T11:21:00.061Z,25.03
2017-12-15T11:23:26.292Z,24.27
2017-12-15T11:25:52.493Z,25.33
2017-12-15T11:28:19.514Z,23.43
2017-12-15T11:30:46.505Z,21.90
2017-12-15T11:33:12.742Z,21.93
2017-12-15T11:35:38.953Z,21.47
2017-12-15T11:38:05.145Z,24.07
2017-12-15T11:40:31.328Z,22.43
2017-12-15T11:42:57.640Z,20.03
2017-12-15T11:45:23.911Z,22.30
2017-12-15T11:47:50.892Z,21.50
2017-12-15T11:50:17.130Z,22.07
2017-12-15T11:52:43.369Z,21.00
2017-12-15T11:55:09.574Z,21.67
2017-12-15T11:57:35.789Z,22.07
2017-12-15T12:00:02.737Z,20.70
2017-12-15T12:02:29.705Z,21.73
2017-12-15T12:04:56.681Z,21.00
2017-12-15T12:07:22.909Z,21.20
2017-12-15T12:09:49.169Z,21.43
2017-12-15T12:12:15.369Z,25.93
2017-12-15T12:14:41.592Z,21.93
2017-12-15T12:17:08.543Z,22.77
2017-12-15T12:19:35.579Z,22.57
2017-12-15T12:22:02.559Z,23.93
2017-12-15T12:24:28.780Z,22.07
2017-12-15T12:26:55.046Z,20.97
2017-12-15T12:29:21.296Z,22.17
2017-12-15T12:31:47.524Z,22.70
2017-12-15T12:34:13.766Z,22.30
2017-12-15T12:36:40.248Z,22.27
2017-12-15T12:39:07.198Z,22.63
2017-12-15T12:41:33.425Z,21.93
2017-12-15T12:43:59.766Z,19.30
2017-12-15T12:46:26.738Z,19.97
2017-12-15T12:48:53.027Z,20.53
2017-12-15T12:51:19.259Z,21.20
2017-12-15T12:53:45.473Z,21.23
2017-12-15T12:56:11.681Z,23.83
2017-12-15T12:58:39.101Z,23.60
2017-12-15T13:01:05.606Z,24.60
2017-12-15T13:03:31.805Z,22.83
2017-12-15T13:05:58.820Z,24.30
2017-12-15T13:08:25.060Z,23.07
2017-12-15T13:10:51.253Z,23.77
2017-12-15T13:13:17.545Z,23.97
2017-12-15T13:15:44.520Z,23.60
2017-12-15T13:18:11.472Z,25.40
2017-12-15T13:20:40.311Z,25.07
2017-12-15T13:23:06.514Z,23.90
2017-12-15T13:25:32.717Z,27.70
2017-12-15T13:27:58.938Z,27.87
2017-12-15T13:30:25.133Z,28.57
2017-12-15T13:32:51.341Z,28.17
2017-12-15T13:35:17.586Z,30.47
2017-12-15T13:37:43.824Z,29.47
2017-12-15T13:40:10.078Z,33.10
2017-12-15T13:42:36.318Z,29.67
2017-12-15T13:45:02.661Z,30.20
2017-12-15T13:47:28.857Z,31.07
2017-12-15T13:49:55.081Z,31.67
2017-12-15T13:52:21.325Z,29.30
2017-12-15T13:54:47.529Z,28.17
2017-12-15T13:57:14.486Z,27.20
2017-12-15T13:59:41.415Z,29.90
2017-12-15T14:02:07.645Z,30.93
2017-12-15T14:04:33.877Z,29.63
2017-12-15T14:07:00.089Z,29.57
2017-12-15T14:09:26.309Z,28.67
2017-12-15T14:11:52.564Z,27.17
2017-12-15T14:14:18.773Z,27.77
2017-12-15T14:16:44.996Z,30.10
2017-12-15T14:19:11.344Z,27.37
2017-12-15T14:21:37.561Z,64.60
2017-12-15T14:24:03.870Z,33.10
2017-12-15T14:26:30.090Z,31.10
2017-12-15T14:28:56.313Z,29.37
2017-12-15T14:31:26.287Z,29.83
2017-12-15T14:33:56.444Z,33.27
2017-12-15T14:36:22.956Z,31.00
2017-12-15T14:38:49.208Z,32.53
2017-12-15T14:41:15.638Z,32.53
2017-12-15T14:43:41.955Z,31.50
2017-12-15T14:46:08.673Z,30.83
2017-12-15T14:48:43.831Z,32.20
2017-12-15T14:51:01.935Z,30.70
2017-12-15T14:53:28.216Z,31.90
2017-12-15T14:55:55.378Z,31.83
2017-12-15T14:58:21.700Z,29.30
2017-12-15T15:00:48.677Z,30.13
2017-12-15T15:03:14.944Z,30.00
2017-12-15T15:05:41.172Z,31.37
2017-12-15T15:08:08.213Z,27.70
2017-12-15T15:10:34.473Z,28.30
2017-12-15T15:13:00.704Z,27.30
2017-12-15T15:15:26.932Z,27.97
2017-12-15T15:17:53.165Z,30.03
2017-12-15T15:20:19.392Z,27.57
2017-12-15T15:22:45.600Z,30.50
2017-12-15T15:25:12.581Z,30.00
2017-12-15T15:27:38.890Z,29.13
2017-12-15T15:30:05.181Z,28.17
2017-12-15T15:32:32.276Z,30.57
2017-12-15T15:34:58.630Z,31.93
2017-12-15T15:37:25.738Z,32.30
2017-12-15T15:39:52.198Z,30.10
2017-12-15T15:42:18.575Z,31.90
2017-12-15T15:44:46.281Z,30.40
2017-12-15T15:47:13.055Z,28.10
2017-12-15T15:49:39.358Z,28.40
2017-12-15T15:52:06.404Z,29.30
2017-12-15T15:54:33.473Z,27.20
2017-12-15T15:56:59.814Z,29.00
2017-12-15T15:59:26.969Z,30.00
2017-12-15T16:01:53.278Z,28.87
2017-12-15T16:04:19.591Z,28.43
2017-12-15T16:06:46.362Z,29.93
2017-12-15T16:09:12.771Z,28.73
2017-12-15T16:11:39.166Z,29.97
2017-12-15T16:14:06.297Z,31.80
2017-12-15T16:16:32.723Z,31.53
2017-12-15T16:18:59.106Z,32.57
2017-12-15T16:21:25.582Z,32.30
2017-12-15T16:23:52.062Z,30.17
2017-12-15T16:26:19.440Z,33.57
2017-12-15T16:28:45.951Z,32.83
2017-12-15T16:31:12.481Z,34.23
2017-12-15T16:33:39.050Z,31.83
2017-12-15T16:36:05.365Z,31.07
2017-12-15T16:38:32.288Z,34.63
2017-12-15T16:41:00.204Z,32.93
2017-12-15T16:43:27.505Z,29.67
2017-12-15T16:45:53.869Z,31.40
2017-12-15T16:48:21.462Z,30.60
2017-12-15T16:50:48.056Z,30.60
2017-12-15T16:53:15.242Z,28.07
2017-12-15T16:55:42.318Z,30.10
2017-12-15T16:58:08.727Z,28.20
2017-12-15T17:00:35.190Z,30.03
2017-12-15T17:03:02.670Z,29.30
2017-12-15T17:05:28.997Z,28.63
2017-12-15T17:07:56.052Z,27.90
2017-12-15T17:10:23.043Z,26.67
2017-12-15T17:12:50.025Z,29.30
2017-12-15T17:15:17.140Z,27.83
2017-12-15T17:17:43.431Z,30.20
2017-12-15T17:20:09.740Z,27.00
2017-12-15T17:22:35.991Z,28.30
2017-12-15T17:25:02.320Z,28.50
2017-12-15T17:27:28.688Z,28.30
2017-12-15T17:29:54.982Z,28.80
2017-12-15T17:32:21.354Z,27.70
2017-12-15T17:34:48.360Z,26.93
2017-12-15T17:37:14.670Z,26.27
2017-12-15T17:39:40.958Z,25.77
2017-12-15T17:42:07.220Z,25.87
2017-12-15T17:44:33.617Z,25.40
2017-12-15T17:47:00.029Z,24.87
2017-12-15T17:49:27.681Z,22.73
2017-12-15T17:51:54.495Z,22.77
2017-12-15T17:54:20.939Z,21.17
2017-12-15T17:56:47.491Z,24.20
2017-12-15T17:59:14.009Z,23.50
2017-12-15T18:01:40.488Z,21.90
2017-12-15T18:04:06.948Z,23.47
2017-12-15T18:06:33.233Z,22.20
2017-12-15T18:08:59.473Z,20.80
2017-12-15T18:11:26.640Z,19.90
2017-12-15T18:13:52.945Z,20.97
2017-12-15T18:16:19.292Z,21.73
2017-12-15T18:18:45.622Z,20.03
2017-12-15T18:21:12.674Z,20.30
2017-12-15T18:23:39.786Z,21.43
2017-12-15T18:26:06.870Z,21.50
2017-12-15T18:28:34.000Z,19.00
2017-12-15T18:31:00.491Z,19.17
2017-12-15T18:33:26.861Z,19.37
2017-12-15T18:35:53.293Z,17.67
2017-12-15T18:38:20.399Z,17.07
2017-12-15T18:40:46.741Z,18.50
2017-12-15T18:43:13.000Z,17.50
2017-12-15T18:45:39.255Z,17.57
2017-12-15T18:48:05.569Z,16.43
2017-12-15T18:50:32.137Z,18.80
2017-12-15T18:52:58.366Z,17.17
2017-12-15T18:55:24.592Z,18.40
2017-12-15T18:57:50.880Z,18.80
2017-12-15T19:00:17.104Z,18.07
2017-12-15T19:02:44.082Z,18.70
2017-12-15T19:05:10.329Z,18.27
2017-12-15T19:07:36.564Z,19.00
2017-12-15T19:10:02.958Z,16.77
2017-12-15T19:12:29.338Z,19.00
2017-12-15T19:14:56.454Z,18.63
2017-12-15T19:17:22.812Z,18.50
2017-12-15T19:19:49.337Z,16.57
2017-12-15T19:22:15.618Z,17.17
2017-12-15T19:24:42.589Z,17.87
2017-12-15T19:27:09.724Z,17.60
2017-12-15T19:29:35.972Z,17.13
2017-12-15T19:32:02.222Z,16.77
2017-12-15T19:34:28.728Z,18.20
2017-12-15T19:36:54.966Z,18.83
2017-12-15T19:39:21.197Z,18.40
2017-12-15T19:41:47.700Z,20.50
2017-12-15T19:44:14.149Z,17.93
2017-12-15T19:46:40.488Z,18.83
2017-12-15T19:49:06.831Z,17.77
2017-12-15T19:51:33.426Z,17.97
2017-12-15T19:53:59.673Z,19.00
2017-12-15T19:56:25.988Z,20.43
2017-12-15T19:58:53.246Z,19.00
2017-12-15T20:01:19.672Z,17.20
2017-12-15T20:03:46.985Z,17.63
2017-12-15T20:06:13.289Z,16.83
2017-12-15T20:08:40.410Z,18.33
2017-12-15T20:11:06.817Z,17.73
2017-12-15T20:13:33.304Z,14.97
2017-12-15T20:15:59.681Z,16.37
2017-12-15T20:18:26.076Z,17.00
2017-12-15T20:20:52.488Z,17.10
2017-12-15T20:23:18.874Z,16.30
2017-12-15T20:25:45.163Z,16.17
2017-12-15T20:28:11.553Z,14.67
2017-12-15T20:30:38.585Z,15.33
2017-12-15T20:33:04.946Z,15.97
2017-12-15T20:35:32.072Z,14.67
2017-12-15T20:37:59.239Z,15.57
2017-12-15T20:40:26.340Z,14.23
2017-12-15T20:42:52.629Z,18.83
2017-12-15T20:45:18.901Z,16.53
2017-12-15T20:47:45.177Z,16.30
2017-12-15T20:50:11.502Z,15.50
2017-12-15T20:52:38.113Z,14.47
2017-12-15T20:55:05.162Z,16.63
2017-12-15T20:57:32.244Z,16.30
2017-12-15T20:59:58.601Z,16.23
2017-12-15T21:02:24.908Z,15.83
2017-12-15T21:04:51.284Z,15.67
2017-12-15T21:07:17.549Z,16.63
2017-12-15T21:09:44.287Z,15.83
2017-12-15T21:12:10.583Z,15.40
2017-12-15T21:14:36.839Z,15.50
2017-12-15T21:17:03.172Z,15.50
2017-12-15T21:19:29.499Z,15.80
2017-12-15T21:21:55.864Z,15.77
2017-12-15T21:24:22.201Z,15.43
2017-12-15T21:26:48.622Z,16.77
2017-12-15T21:29:15.906Z,18.80
2017-12-15T21:31:43.042Z,18.40
2017-12-15T21:34:10.154Z,17.60
2017-12-15T21:36:36.514Z,19.03
2017-12-15T21:39:02.800Z,18.70
2017-12-15T21:41:29.840Z,19.87
2017-12-15T21:43:56.104Z,18.97
2017-12-15T21:46:23.147Z,20.00
2017-12-15T21:48:50.199Z,19.57
2017-12-15T21:51:17.202Z,19.40
2017-12-15T21:53:44.522Z,19.20
2017-12-15T21:56:10.795Z,18.07
2017-12-15T21:58:37.048Z,21.73
2017-12-15T22:01:03.436Z,28.10
2017-12-15T22:03:29.714Z,34.20
2017-12-15T22:05:56.012Z,18.40
2017-12-15T22:08:22.996Z,17.10
2017-12-15T22:10:49.359Z,17.23
2017-12-15T22:13:15.602Z,18.30
2017-12-15T22:15:41.878Z,19.17
2017-12-15T22:18:08.133Z,17.60
2017-12-15T22:20:34.439Z,17.80
2017-12-15T22:23:00.690Z,17.90
2017-12-15T22:25:26.991Z,19.77
2017-12-15T22:27:54.014Z,17.77
2017-12-15T22:30:20.366Z,19.63
2017-12-15T22:32:47.478Z,20.13
2017-12-15T22:35:14.526Z,21.40
2017-12-15T22:37:41.886Z,20.60
2017-12-15T22:40:08.849Z,20.00
2017-12-15T22:42:35.165Z,17.97
2017-12-15T22:45:01.496Z,19.50
2017-12-15T22:47:28.598Z,18.60
2017-12-15T22:49:55.011Z,17.27
2017-12-15T22:52:21.319Z,16.53
2017-12-15T22:54:48.091Z,16.87
2017-12-15T22:57:14.421Z,18.07
2017-12-15T22:59:41.408Z,17.53
2017-12-15T23:02:08.595Z,17.30
2017-12-15T23:04:34.869Z,17.03
2017-12-15T23:07:01.171Z,17.03
2017-12-15T23:09:28.174Z,15.50
2017-12-15T23:11:54.453Z,16.77
2017-12-15T23:14:20.680Z,16.53
2017-12-15T23:16:47.673Z,17.70
2017-12-15T23:19:14.713Z,17.60
2017-12-15T23:21:41.004Z,16.93
2017-12-15T23:24:07.250Z,17.20
2017-12-15T23:26:33.549Z,18.73
2017-12-15T23:29:00.660Z,18.10
2017-12-15T23:31:27.073Z,18.30
2017-12-15T23:33:53.442Z,15.30
2017-12-15T23:36:20.504Z,26.37
2017-12-15T23:38:47.548Z,21.30
2017-12-15T23:41:13.942Z,19.20
2017-12-15T23:43:40.227Z,18.80
2017-12-15T23:46:06.466Z,17.70
2017-12-15T23:48:32.684Z,17.90
2017-12-15T23:50:58.890Z,18.00
2017-12-15T23:53:25.947Z,16.37
2017-12-15T23:56:04.884Z,20.83
2017-12-15T23:58:31.384Z,19.30
